createdAt,value
2022-09-16T00:01:01.922Z,12.70
2022-09-16T00:03:29.018Z,12.67
2022-09-16T00:05:56.098Z,12.65
2022-09-16T00:08:23.531Z,12.60
2022-09-16T00:10:51.213Z,12.52
2022-09-16T00:13:19.301Z,12.50
2022-09-16T00:15:53.271Z,12.48
2022-09-16T00:18:21.356Z,12.43
2022-09-16T00:20:50.937Z,12.40
2022-09-16T00:23:20.013Z,12.41
2022-09-16T00:25:55.678Z,12.42
2022-09-16T00:28:23.858Z,12.42
2022-09-16T00:30:51.150Z,12.40
2022-09-16T00:33:19.968Z,12.36
2022-09-16T00:35:48.408Z,12.33
2022-09-16T00:38:15.645Z,12.30
2022-09-16T00:40:49.007Z,12.31
2022-09-16T00:43:19.488Z,12.33
2022-09-16T00:45:56.764Z,12.34
2022-09-16T00:48:30.021Z,12.37
2022-09-16T00:51:05.109Z,12.40
2022-09-16T00:53:42.885Z,12.42
2022-09-16T00:56:15.109Z,12.46
2022-09-16T00:59:13.577Z,12.46
2022-09-16T01:01:44.408Z,12.43
2022-09-16T01:04:47.046Z,12.46
2022-09-16T01:07:15.169Z,12.46
2022-09-16T01:09:42.260Z,12.46
2022-09-16T01:12:09.178Z,12.46
2022-09-16T01:14:54.495Z,12.46
2022-09-16T01:17:52.994Z,12.48
2022-09-16T01:21:00.330Z,12.48
2022-09-16T01:24:08.250Z,12.48
2022-09-16T01:27:04.626Z,12.49
2022-09-16T01:30:22.407Z,12.50
2022-09-16T01:33:05.022Z,12.50
2022-09-16T01:36:09.047Z,12.50
2022-09-16T01:39:10.430Z,12.51
2022-09-16T01:41:57.513Z,12.45
2022-09-16T01:45:03.898Z,12.40
2022-09-16T01:47:55.539Z,12.35
2022-09-16T01:51:00.749Z,12.32
2022-09-16T01:53:34.756Z,12.28
2022-09-16T01:56:42.936Z,12.24
2022-09-16T01:59:28.688Z,12.21
2022-09-16T02:02:06.355Z,12.20
2022-09-16T02:04:44.165Z,12.19
2022-09-16T02:07:16.403Z,12.18
2022-09-16T02:10:00.583Z,12.17
2022-09-16T02:12:34.668Z,12.16
2022-09-16T02:15:11.403Z,12.19
2022-09-16T02:17:48.638Z,12.16
2022-09-16T02:20:25.826Z,12.20
2022-09-16T02:23:15.606Z,12.22
2022-09-16T02:25:48.700Z,12.23
2022-09-16T02:28:38.843Z,12.23
2022-09-16T02:31:09.403Z,12.23
2022-09-16T02:33:56.384Z,12.26
2022-09-16T02:36:26.956Z,12.26
2022-09-16T02:39:07.206Z,12.32
2022-09-16T02:41:37.454Z,12.27
2022-09-16T02:44:05.568Z,12.24
2022-09-16T02:46:39.523Z,12.26
2022-09-16T02:49:44.125Z,12.23
2022-09-16T02:52:14.116Z,12.20
2022-09-16T02:55:18.632Z,12.18
2022-09-16T02:57:46.356Z,12.14
2022-09-16T03:00:13.626Z,12.09
2022-09-16T03:02:41.223Z,12.04
2022-09-16T03:05:09.639Z,11.98
2022-09-16T03:07:42.602Z,11.91
2022-09-16T03:10:12.656Z,11.84
2022-09-16T03:12:58.688Z,11.76
2022-09-16T03:16:22.256Z,11.75
2022-09-16T03:19:20.796Z,11.68
2022-09-16T03:22:06.460Z,11.64
2022-09-16T03:24:59.519Z,11.60
2022-09-16T03:27:50.260Z,11.58
2022-09-16T03:30:17.684Z,11.54
2022-09-16T03:33:03.841Z,11.53
2022-09-16T03:35:43.153Z,11.51
2022-09-16T03:38:13.338Z,11.49
2022-09-16T03:40:42.754Z,11.46
2022-09-16T03:43:16.004Z,11.46
2022-09-16T03:45:44.261Z,11.45
2022-09-16T03:48:13.375Z,11.41
2022-09-16T03:50:40.942Z,11.42
2022-09-16T03:53:08.199Z,11.44
2022-09-16T03:55:35.333Z,11.45
2022-09-16T03:58:02.298Z,11.46
2022-09-16T04:00:29.659Z,11.48
2022-09-16T04:02:59.724Z,11.48
2022-09-16T04:05:27.755Z,11.46
2022-09-16T04:07:54.584Z,11.49
2022-09-16T04:10:21.568Z,11.50
2022-09-16T04:12:48.519Z,11.53
2022-09-16T04:15:16.363Z,11.55
2022-09-16T04:17:43.625Z,11.56
2022-09-16T04:20:10.620Z,11.55
2022-09-16T04:22:37.584Z,11.54
2022-09-16T04:25:10.378Z,11.54
2022-09-16T04:27:37.465Z,11.53
2022-09-16T04:30:05.118Z,11.54
2022-09-16T04:32:33.085Z,11.52
2022-09-16T04:35:00.029Z,11.54
2022-09-16T04:37:31.356Z,11.55
2022-09-16T04:40:02.338Z,11.56
2022-09-16T04:42:31.598Z,11.57
2022-09-16T04:45:01.040Z,11.56
2022-09-16T04:47:29.150Z,11.58
2022-09-16T04:49:56.071Z,11.57
2022-09-16T04:52:23.061Z,11.58
2022-09-16T04:54:49.896Z,11.58
2022-09-16T04:57:16.837Z,11.59
2022-09-16T04:59:44.064Z,11.58
2022-09-16T05:02:11.513Z,11.58
2022-09-16T05:04:38.585Z,11.57
2022-09-16T05:07:05.752Z,11.55
2022-09-16T05:09:33.716Z,11.51
2022-09-16T05:12:00.869Z,11.48
2022-09-16T05:14:27.856Z,11.46
2022-09-16T05:16:54.820Z,11.48
2022-09-16T05:19:22.192Z,11.49
2022-09-16T05:21:49.228Z,11.53
2022-09-16T05:24:16.219Z,11.56
2022-09-16T05:26:43.884Z,11.59
2022-09-16T05:29:16.415Z,11.58
2022-09-16T05:31:48.494Z,11.58
2022-09-16T05:34:21.384Z,11.57
2022-09-16T05:36:50.396Z,11.59
2022-09-16T05:39:25.796Z,11.61
2022-09-16T05:42:00.007Z,11.62
2022-09-16T05:44:28.771Z,11.65
2022-09-16T05:46:56.231Z,11.67
2022-09-16T05:49:24.100Z,11.65
2022-09-16T05:51:52.180Z,11.64
2022-09-16T05:54:20.366Z,11.65
2022-09-16T05:56:48.124Z,11.65
2022-09-16T05:59:16.953Z,11.68
2022-09-16T06:01:45.265Z,11.70
2022-09-16T06:04:15.139Z,11.74
2022-09-16T06:06:46.915Z,11.75
2022-09-16T06:09:21.809Z,11.74
2022-09-16T06:11:52.101Z,11.73
2022-09-16T06:14:22.589Z,11.72
2022-09-16T06:16:49.759Z,11.74
2022-09-16T06:19:18.712Z,11.78
2022-09-16T06:21:49.633Z,11.86
2022-09-16T06:24:19.926Z,11.92
2022-09-16T06:26:48.653Z,12.03
2022-09-16T06:29:16.987Z,12.16
2022-09-16T06:31:44.036Z,12.22
2022-09-16T06:34:16.368Z,12.20
2022-09-16T06:36:45.560Z,12.15
2022-09-16T06:39:15.329Z,12.26
2022-09-16T06:41:43.111Z,12.33
2022-09-16T06:44:10.276Z,12.37
2022-09-16T06:46:38.191Z,12.54
2022-09-16T06:49:06.490Z,12.71
2022-09-16T06:51:35.855Z,12.91
2022-09-16T06:54:06.622Z,13.02
2022-09-16T06:56:36.237Z,13.04
2022-09-16T06:59:03.723Z,13.04
2022-09-16T07:01:32.765Z,13.10
2022-09-16T07:04:05.956Z,13.09
2022-09-16T07:09:22.294Z,13.12
2022-09-16T07:11:49.419Z,13.18
2022-09-16T07:14:16.399Z,13.17
2022-09-16T07:16:43.440Z,13.16
2022-09-16T07:19:10.885Z,13.15
2022-09-16T07:21:38.017Z,13.13
2022-09-16T07:24:05.189Z,13.07
2022-09-16T07:26:35.309Z,13.02
2022-09-16T07:29:06.559Z,12.93
2022-09-16T07:31:37.580Z,12.92
2022-09-16T07:34:08.560Z,12.98
2022-09-16T07:36:43.372Z,13.00
2022-09-16T07:39:13.867Z,13.06
2022-09-16T07:41:44.978Z,13.07
2022-09-16T07:44:15.489Z,13.12
2022-09-16T07:46:43.555Z,13.17
2022-09-16T07:49:14.392Z,13.26
2022-09-16T07:51:42.174Z,13.36
2022-09-16T07:54:14.797Z,13.47
2022-09-16T07:56:44.315Z,13.63
2022-09-16T07:59:18.774Z,13.82
2022-09-16T08:01:49.197Z,13.90
2022-09-16T08:04:18.544Z,13.99
2022-09-16T08:06:45.711Z,14.02
2022-09-16T08:09:37.159Z,14.12
2022-09-16T08:12:04.455Z,14.29
2022-09-16T08:14:33.250Z,14.44
2022-09-16T08:17:01.232Z,14.50
2022-09-16T08:19:28.156Z,14.63
2022-09-16T08:21:55.099Z,14.70
2022-09-16T08:24:22.067Z,14.71
2022-09-16T08:26:49.167Z,14.71
2022-09-16T08:29:16.678Z,14.78
2022-09-16T08:31:44.108Z,14.84
2022-09-16T08:34:11.146Z,14.80
2022-09-16T08:36:38.136Z,14.77
2022-09-16T08:39:05.131Z,14.91
2022-09-16T08:41:50.798Z,15.06
2022-09-16T08:44:28.262Z,15.27
2022-09-16T08:47:00.962Z,15.34
2022-09-16T08:49:47.118Z,15.39
2022-09-16T08:52:38.731Z,15.47
2022-09-16T08:55:16.863Z,15.42
2022-09-16T08:58:01.327Z,15.28
2022-09-16T09:00:29.003Z,15.29
2022-09-16T09:03:15.821Z,15.35
2022-09-16T09:05:54.845Z,15.55
2022-09-16T09:09:11.495Z,15.73
2022-09-16T09:12:11.966Z,15.82
2022-09-16T09:15:00.897Z,15.90
2022-09-16T09:18:08.142Z,15.89
2022-09-16T09:21:21.509Z,16.05
2022-09-16T09:24:08.092Z,16.33
2022-09-16T09:26:49.965Z,16.56
2022-09-16T09:29:40.149Z,16.89
2022-09-16T09:32:57.649Z,17.22
2022-09-16T09:35:33.511Z,17.13
2022-09-16T09:38:47.354Z,17.07
2022-09-16T09:41:39.562Z,16.74
2022-09-16T09:44:22.002Z,16.37
2022-09-16T09:46:59.260Z,16.02
2022-09-16T09:49:41.133Z,15.59
2022-09-16T09:52:22.226Z,15.02
2022-09-16T09:54:51.835Z,14.43
2022-09-16T09:57:39.793Z,14.06
2022-09-16T10:00:18.001Z,14.02
2022-09-16T10:02:49.828Z,13.96
2022-09-16T10:05:28.970Z,13.99
2022-09-16T10:08:04.057Z,13.91
2022-09-16T10:10:34.727Z,13.89
2022-09-16T10:13:13.082Z,13.82
2022-09-16T10:15:40.914Z,13.76
2022-09-16T10:18:29.888Z,13.74
2022-09-16T10:21:09.634Z,13.77
2022-09-16T10:23:39.302Z,13.81
2022-09-16T10:26:19.711Z,13.79
2022-09-16T10:29:00.627Z,13.78
2022-09-16T10:31:37.812Z,13.70
2022-09-16T10:34:19.099Z,13.64
2022-09-16T10:36:46.468Z,13.50
2022-09-16T10:39:29.891Z,13.32
2022-09-16T10:41:57.536Z,13.18
2022-09-16T10:44:32.094Z,13.12
2022-09-16T10:47:18.246Z,13.28
2022-09-16T10:49:51.198Z,13.54
2022-09-16T10:52:24.910Z,13.81
2022-09-16T10:54:54.926Z,14.03
2022-09-16T10:57:21.926Z,14.25
2022-09-16T11:00:14.783Z,14.53
2022-09-16T11:03:32.327Z,14.73
2022-09-16T11:06:20.244Z,14.88
2022-09-16T11:09:08.100Z,15.09
2022-09-16T11:12:36.950Z,15.31
2022-09-16T11:15:19.237Z,15.49
2022-09-16T11:18:20.382Z,15.72
2022-09-16T11:21:28.521Z,16.01
2022-09-16T11:24:21.521Z,16.19
2022-09-16T11:27:19.922Z,16.39
2022-09-16T11:30:22.534Z,16.65
2022-09-16T11:33:27.799Z,16.90
2022-09-16T11:36:16.658Z,16.90
2022-09-16T11:39:00.766Z,16.83
2022-09-16T11:42:09.669Z,16.90
2022-09-16T11:45:01.151Z,16.83
2022-09-16T11:47:42.109Z,16.94
2022-09-16T11:50:28.635Z,16.85
2022-09-16T11:53:12.753Z,16.77
2022-09-16T11:56:01.578Z,16.60
2022-09-16T11:58:46.379Z,16.43
2022-09-16T12:01:31.571Z,16.24
2022-09-16T12:04:23.517Z,16.11
2022-09-16T12:07:16.484Z,15.99
2022-09-16T12:09:54.585Z,15.87
2022-09-16T12:12:32.225Z,15.80
2022-09-16T12:15:07.148Z,15.73
2022-09-16T12:17:40.377Z,15.68
2022-09-16T12:20:20.585Z,15.60
2022-09-16T12:23:04.238Z,15.45
2022-09-16T12:25:46.448Z,15.23
2022-09-16T12:28:28.995Z,15.04
2022-09-16T12:31:30.717Z,14.93
2022-09-16T12:34:04.590Z,14.83
2022-09-16T12:36:37.837Z,14.79
2022-09-16T12:39:05.178Z,14.79
2022-09-16T12:41:44.006Z,14.81
2022-09-16T12:44:41.546Z,15.14
2022-09-16T12:47:35.210Z,15.67
2022-09-16T12:50:58.088Z,16.09
2022-09-16T12:53:53.406Z,16.23
2022-09-16T12:57:13.873Z,16.36
2022-09-16T13:00:12.120Z,16.36
2022-09-16T13:02:52.029Z,16.46
2022-09-16T13:05:30.873Z,16.59
2022-09-16T13:08:27.323Z,16.70
2022-09-16T13:13:59.135Z,16.83
2022-09-16T13:16:35.695Z,16.75
2022-09-16T13:19:29.618Z,16.72
2022-09-16T13:22:37.098Z,16.85
2022-09-16T13:25:23.425Z,16.66
2022-09-16T13:28:32.325Z,16.73
2022-09-16T13:31:33.283Z,16.79
2022-09-16T13:34:00.984Z,16.87
2022-09-16T13:36:28.613Z,16.94
2022-09-16T13:39:14.418Z,17.05
2022-09-16T13:41:47.125Z,17.19
2022-09-16T13:44:40.814Z,17.25
2022-09-16T13:47:11.012Z,17.24
2022-09-16T13:49:50.006Z,17.32
2022-09-16T13:52:26.623Z,17.46
2022-09-16T13:55:12.744Z,17.55
2022-09-16T13:58:29.475Z,17.83
2022-09-16T14:01:28.134Z,17.95
2022-09-16T14:04:42.977Z,18.00
2022-09-16T14:07:15.970Z,17.84
2022-09-16T14:10:03.602Z,17.95
2022-09-16T14:12:47.519Z,18.08
2022-09-16T14:15:16.931Z,18.05
2022-09-16T14:17:51.509Z,17.85
2022-09-16T14:20:24.559Z,17.45
2022-09-16T14:23:16.695Z,17.06
2022-09-16T14:25:43.817Z,16.59
2022-09-16T14:28:26.092Z,16.18
2022-09-16T14:30:59.868Z,15.91
2022-09-16T14:33:35.621Z,15.71
2022-09-16T14:36:14.492Z,15.69
2022-09-16T14:38:49.155Z,16.09
2022-09-16T14:41:28.176Z,16.30
2022-09-16T14:44:17.157Z,16.69
2022-09-16T14:47:09.644Z,16.94
2022-09-16T14:49:42.922Z,17.14
2022-09-16T14:52:39.528Z,17.00
2022-09-16T14:55:26.859Z,16.97
2022-09-16T14:57:54.204Z,16.94
2022-09-16T15:00:22.105Z,16.84
2022-09-16T15:02:57.775Z,16.84
2022-09-16T15:05:32.425Z,16.75
2022-09-16T15:08:14.806Z,16.77
2022-09-16T15:10:53.293Z,16.85
2022-09-16T15:13:29.738Z,16.58
2022-09-16T15:16:07.184Z,16.50
2022-09-16T15:18:38.616Z,16.67
2022-09-16T15:21:11.390Z,16.75
2022-09-16T15:23:41.651Z,16.54
2022-09-16T15:26:22.803Z,16.24
2022-09-16T15:29:03.120Z,15.98
2022-09-16T15:31:40.351Z,15.78
2022-09-16T15:34:22.528Z,15.53
2022-09-16T15:36:58.287Z,15.26
2022-09-16T15:39:39.267Z,15.06
2022-09-16T15:42:22.261Z,15.12
2022-09-16T15:45:03.630Z,15.20
2022-09-16T15:47:35.983Z,15.37
2022-09-16T15:50:16.728Z,15.53
2022-09-16T15:53:05.276Z,15.74
2022-09-16T15:55:42.386Z,15.82
2022-09-16T15:58:41.835Z,15.77
2022-09-16T16:01:35.452Z,15.64
2022-09-16T16:04:07.884Z,15.65
2022-09-16T16:06:59.347Z,15.67
2022-09-16T16:09:30.476Z,15.70
2022-09-16T16:12:03.878Z,15.56
2022-09-16T16:14:33.314Z,15.34
2022-09-16T16:17:18.959Z,15.13
2022-09-16T16:19:49.348Z,14.95
2022-09-16T16:22:17.543Z,14.79
2022-09-16T16:24:45.388Z,14.67
2022-09-16T16:27:13.447Z,14.56
2022-09-16T16:29:42.493Z,14.50
2022-09-16T16:32:13.619Z,14.54
2022-09-16T16:34:47.323Z,14.60
2022-09-16T16:37:40.411Z,14.67
2022-09-16T16:40:06.051Z,14.83
2022-09-16T16:42:34.786Z,14.94
2022-09-16T16:45:01.828Z,15.05
2022-09-16T16:47:28.874Z,15.16
2022-09-16T16:49:55.886Z,15.21
2022-09-16T16:52:22.902Z,15.00
2022-09-16T16:54:49.923Z,14.66
2022-09-16T16:57:17.023Z,14.38
2022-09-16T16:59:43.996Z,14.21
2022-09-16T17:02:12.322Z,14.05
2022-09-16T17:04:40.373Z,13.95
2022-09-16T17:09:59.145Z,13.83
2022-09-16T17:12:27.144Z,13.71
2022-09-16T17:14:54.525Z,13.57
2022-09-16T17:17:22.101Z,13.41
2022-09-16T17:19:49.023Z,13.24
2022-09-16T17:22:16.276Z,13.11
2022-09-16T17:24:43.223Z,13.00
2022-09-16T17:27:10.305Z,12.90
2022-09-16T17:29:37.333Z,12.79
2022-09-16T17:32:04.564Z,12.70
2022-09-16T17:34:32.637Z,12.63
2022-09-16T17:36:59.823Z,12.54
2022-09-16T17:39:27.183Z,12.47
2022-09-16T17:41:56.867Z,12.42
2022-09-16T17:44:24.860Z,12.37
2022-09-16T17:46:52.220Z,12.34
2022-09-16T17:49:22.951Z,12.34
2022-09-16T17:51:52.251Z,12.35
2022-09-16T17:54:20.801Z,12.39
2022-09-16T17:56:49.056Z,12.42
2022-09-16T17:59:18.622Z,12.42
2022-09-16T18:01:46.726Z,12.43
2022-09-16T18:04:14.626Z,12.42
2022-09-16T18:06:46.762Z,12.44
2022-09-16T18:09:16.519Z,12.42
2022-09-16T18:11:44.902Z,12.36
2022-09-16T18:14:14.149Z,12.29
2022-09-16T18:16:42.677Z,12.23
2022-09-16T18:19:10.005Z,12.20
2022-09-16T18:21:38.163Z,12.14
2022-09-16T18:24:11.026Z,12.10
2022-09-16T18:26:41.953Z,12.06
2022-09-16T18:29:12.201Z,11.99
2022-09-16T18:31:43.678Z,11.96
2022-09-16T18:34:12.658Z,11.91
2022-09-16T18:36:40.439Z,11.88
2022-09-16T18:39:14.800Z,11.84
2022-09-16T18:41:44.196Z,11.77
2022-09-16T18:44:21.313Z,11.72
2022-09-16T18:46:48.354Z,11.69
2022-09-16T18:49:21.375Z,11.65
2022-09-16T18:51:52.934Z,11.58
2022-09-16T18:54:25.963Z,11.54
2022-09-16T18:57:00.162Z,11.48
2022-09-16T18:59:31.664Z,11.45
2022-09-16T19:02:02.612Z,11.40
2022-09-16T19:04:33.116Z,11.34
2022-09-16T19:07:07.684Z,11.32
2022-09-16T19:09:41.811Z,11.25
2022-09-16T19:12:11.764Z,11.24
2022-09-16T19:14:40.880Z,11.23
2022-09-16T19:17:08.887Z,11.18
2022-09-16T19:19:36.024Z,11.17
2022-09-16T19:22:05.738Z,11.10
2022-09-16T19:24:34.213Z,11.09
2022-09-16T19:27:01.604Z,11.08
2022-09-16T19:29:28.733Z,11.06
2022-09-16T19:31:56.290Z,11.00
2022-09-16T19:34:24.452Z,10.98
2022-09-16T19:36:51.742Z,10.98
2022-09-16T19:39:19.333Z,10.93
2022-09-16T19:41:46.334Z,10.92
2022-09-16T19:44:17.423Z,10.88
2022-09-16T19:46:47.015Z,10.87
2022-09-16T19:49:20.989Z,10.84
2022-09-16T19:51:50.864Z,10.82
2022-09-16T19:54:18.933Z,10.79
2022-09-16T19:56:50.372Z,10.78
2022-09-16T19:59:19.448Z,10.76
2022-09-16T20:01:47.609Z,10.73
2022-09-16T20:04:17.000Z,10.68
2022-09-16T20:06:44.392Z,10.66
2022-09-16T20:09:13.312Z,10.67
2022-09-16T20:11:44.772Z,10.68
2022-09-16T20:14:19.370Z,10.70
2022-09-16T20:16:47.922Z,10.71
2022-09-16T20:19:17.283Z,10.71
2022-09-16T20:21:45.111Z,10.73
2022-09-16T20:24:21.840Z,10.78
2022-09-16T20:26:53.721Z,10.77
2022-09-16T20:29:21.572Z,10.77
2022-09-16T20:31:52.638Z,10.78
2022-09-16T20:34:22.981Z,10.84
2022-09-16T20:36:50.875Z,10.88
2022-09-16T20:39:17.878Z,10.90
2022-09-16T20:41:49.627Z,10.92
2022-09-16T20:44:16.803Z,10.95
2022-09-16T20:46:44.729Z,10.95
2022-09-16T20:49:16.500Z,10.97
2022-09-16T20:51:44.893Z,10.92
2022-09-16T20:54:14.790Z,10.91
2022-09-16T20:56:45.694Z,10.88
2022-09-16T20:59:16.000Z,10.84
2022-09-16T21:01:44.812Z,10.84
2022-09-16T21:04:18.976Z,10.85
2022-09-16T21:06:46.579Z,10.82
2022-09-16T21:09:15.485Z,10.79
2022-09-16T21:11:46.049Z,10.79
2022-09-16T21:14:16.717Z,10.80
2022-09-16T21:16:45.793Z,10.80
2022-09-16T21:19:13.855Z,10.79
2022-09-16T21:21:44.444Z,10.81
2022-09-16T21:24:13.093Z,10.78
2022-09-16T21:26:41.289Z,10.78
2022-09-16T21:29:21.100Z,10.80
2022-09-16T21:31:49.241Z,10.81
2022-09-16T21:34:20.893Z,10.84
2022-09-16T21:36:49.686Z,10.85
2022-09-16T21:39:20.133Z,10.86
2022-09-16T21:41:48.639Z,10.91
2022-09-16T21:44:16.603Z,10.91
2022-09-16T21:46:46.356Z,10.92
2022-09-16T21:49:28.886Z,10.94
2022-09-16T21:51:58.767Z,10.93
2022-09-16T21:54:27.940Z,10.92
2022-09-16T21:56:55.070Z,10.93
2022-09-16T21:59:22.344Z,10.94
2022-09-16T22:01:51.156Z,10.94
2022-09-16T22:04:24.195Z,10.97
2022-09-16T22:06:55.042Z,10.97
2022-09-16T22:09:23.302Z,11.00
2022-09-16T22:11:56.157Z,11.01
2022-09-16T22:14:23.813Z,11.01
2022-09-16T22:16:50.798Z,11.05
2022-09-16T22:19:19.208Z,11.06
2022-09-16T22:21:50.678Z,11.06
2022-09-16T22:24:22.323Z,11.04
2022-09-16T22:26:51.592Z,11.03
2022-09-16T22:29:19.023Z,11.02
2022-09-16T22:31:46.382Z,11.02
2022-09-16T22:34:13.439Z,10.99
2022-09-16T22:36:40.475Z,10.97
2022-09-16T22:39:14.125Z,10.97
2022-09-16T22:41:41.774Z,10.91
2022-09-16T22:44:09.066Z,10.91
2022-09-16T22:46:45.483Z,10.93
2022-09-16T22:49:14.425Z,10.87
2022-09-16T22:51:42.481Z,10.85
2022-09-16T22:54:13.337Z,10.81
2022-09-16T22:56:41.301Z,10.75
2022-09-16T22:59:20.149Z,10.73
2022-09-16T23:01:48.070Z,10.71
2022-09-16T23:04:15.962Z,10.70
2022-09-16T23:06:43.281Z,10.67
2022-09-16T23:09:13.536Z,10.67
2022-09-16T23:11:40.868Z,10.67
2022-09-16T23:14:10.776Z,10.62
2022-09-16T23:16:38.797Z,10.60
2022-09-16T23:19:11.029Z,10.56
2022-09-16T23:21:39.165Z,10.53
2022-09-16T23:24:11.159Z,10.47
2022-09-16T23:26:38.556Z,10.45
2022-09-16T23:29:10.091Z,10.41
2022-09-16T23:31:40.871Z,10.38
2022-09-16T23:34:12.940Z,10.33
2022-09-16T23:36:40.288Z,10.31
2022-09-16T23:39:09.172Z,10.29
2022-09-16T23:41:36.543Z,10.24
2022-09-16T23:44:03.597Z,10.22
2022-09-16T23:46:31.186Z,10.20
2022-09-16T23:49:00.016Z,10.17
2022-09-16T23:51:29.483Z,10.15
2022-09-16T23:53:58.273Z,10.12
2022-09-16T23:56:28.064Z,10.11
2022-09-16T23:58:59.083Z,10.08
